createdAt,value
2017-05-31T00:01:03.132Z,7.12
2017-05-31T00:03:31.423Z,7.50
2017-05-31T00:05:59.087Z,7.40
2017-05-31T00:08:27.367Z,7.72
2017-05-31T00:10:55.761Z,7.64
2017-05-31T00:13:24.160Z,7.60
2017-05-31T00:15:51.921Z,7.26
2017-05-31T00:18:20.479Z,8.02
2017-05-31T00:20:49.008Z,7.60
2017-05-31T00:23:17.332Z,9.02
2017-05-31T00:25:45.621Z,9.46
2017-05-31T00:28:14.048Z,9.60
2017-05-31T00:30:42.340Z,8.68
2017-05-31T00:33:10.623Z,7.76
2017-05-31T00:35:39.087Z,7.50
2017-05-31T00:38:07.415Z,8.48
2017-05-31T00:40:35.712Z,8.14
2017-05-31T00:43:04.135Z,8.24
2017-05-31T00:45:32.515Z,8.04
2017-05-31T00:48:00.855Z,7.48
2017-05-31T00:50:29.144Z,8.74
2017-05-31T00:52:57.437Z,8.60
2017-05-31T00:55:25.781Z,9.34
2017-05-31T00:57:54.068Z,9.10
2017-05-31T01:00:22.652Z,8.12
2017-05-31T01:02:50.977Z,8.58
2017-05-31T01:05:19.259Z,8.20
2017-05-31T01:07:47.596Z,7.86
2017-05-31T01:10:15.885Z,8.38
2017-05-31T01:12:44.174Z,7.48
2017-05-31T01:15:12.561Z,8.50
2017-05-31T01:17:40.848Z,8.68
2017-05-31T01:20:09.144Z,8.58
2017-05-31T01:22:37.476Z,9.28
2017-05-31T01:25:05.815Z,8.72
2017-05-31T01:27:34.100Z,7.62
2017-05-31T01:30:02.442Z,9.58
2017-05-31T01:32:30.897Z,7.80
2017-05-31T01:34:59.308Z,8.92
2017-05-31T01:37:27.651Z,9.78
2017-05-31T01:39:55.999Z,7.92
2017-05-31T01:42:24.316Z,9.02
2017-05-31T01:44:52.653Z,8.60
2017-05-31T01:47:21.248Z,9.22
2017-05-31T01:49:49.546Z,9.76
2017-05-31T01:52:17.973Z,7.98
2017-05-31T01:54:46.269Z,9.70
2017-05-31T01:57:14.561Z,8.26
2017-05-31T01:59:42.427Z,9.62
2017-05-31T02:02:10.815Z,8.76
2017-05-31T02:04:39.131Z,7.70
2017-05-31T02:07:07.492Z,9.98
2017-05-31T02:09:35.903Z,8.66
2017-05-31T02:12:04.312Z,10.18
2017-05-31T02:14:32.897Z,9.40
2017-05-31T02:17:01.189Z,9.06
2017-05-31T02:19:29.748Z,8.80
2017-05-31T02:21:58.140Z,9.96
2017-05-31T02:24:26.428Z,9.18
2017-05-31T02:26:54.721Z,10.36
2017-05-31T02:29:23.098Z,10.62
2017-05-31T02:31:51.657Z,10.76
2017-05-31T02:34:20.124Z,10.18
2017-05-31T02:36:48.455Z,11.12
2017-05-31T02:39:17.029Z,10.64
2017-05-31T02:41:45.325Z,11.40
2017-05-31T02:44:13.664Z,13.14
2017-05-31T02:46:42.129Z,12.84
2017-05-31T02:49:09.660Z,14.08
2017-05-31T02:51:38.133Z,14.08
2017-05-31T02:54:06.429Z,14.90
2017-05-31T02:56:34.940Z,15.80
2017-05-31T02:59:03.465Z,13.36
2017-05-31T03:01:31.756Z,16.28
2017-05-31T03:04:00.103Z,16.24
2017-05-31T03:06:28.762Z,17.90
2017-05-31T03:08:57.048Z,17.26
2017-05-31T03:11:25.386Z,16.38
2017-05-31T03:13:52.958Z,15.26
2017-05-31T03:16:21.564Z,17.54
2017-05-31T03:18:49.860Z,14.26
2017-05-31T03:21:18.291Z,14.92
2017-05-31T03:23:45.842Z,14.22
2017-05-31T03:26:14.136Z,16.50
2017-05-31T03:28:42.655Z,17.08
2017-05-31T03:31:11.130Z,18.76
2017-05-31T03:33:39.635Z,19.60
2017-05-31T03:36:08.060Z,19.90
2017-05-31T03:38:36.529Z,18.78
2017-05-31T03:41:04.987Z,19.66
2017-05-31T03:43:33.530Z,19.72
2017-05-31T03:46:01.841Z,20.82
2017-05-31T03:48:30.283Z,22.26
2017-05-31T03:50:58.593Z,21.20
2017-05-31T03:53:26.140Z,16.78
2017-05-31T03:55:54.761Z,19.60
2017-05-31T03:58:23.061Z,17.60
2017-05-31T04:00:51.560Z,16.56
2017-05-31T04:03:19.904Z,17.70
2017-05-31T04:05:48.204Z,17.90
2017-05-31T04:08:15.956Z,12.46
2017-05-31T04:10:44.319Z,16.34
2017-05-31T04:13:12.716Z,16.84
2017-05-31T04:15:41.125Z,13.50
2017-05-31T04:18:09.506Z,12.08
2017-05-31T04:20:37.912Z,15.02
2017-05-31T04:23:05.437Z,13.86
2017-05-31T04:25:33.253Z,13.76
2017-05-31T04:28:01.656Z,12.42
2017-05-31T04:30:29.992Z,12.20
2017-05-31T04:32:58.331Z,11.26
2017-05-31T04:35:26.000Z,10.60
2017-05-31T04:37:54.297Z,12.28
2017-05-31T04:40:23.056Z,10.24
2017-05-31T04:42:51.378Z,10.06
2017-05-31T04:45:19.672Z,9.96
2017-05-31T04:47:48.371Z,11.10
2017-05-31T04:50:16.764Z,12.08
2017-05-31T04:52:45.060Z,10.14
2017-05-31T04:55:13.641Z,9.22
2017-05-31T04:57:41.932Z,9.14
2017-05-31T05:00:10.221Z,9.26
2017-05-31T05:02:38.553Z,8.62
2017-05-31T05:05:06.948Z,8.42
2017-05-31T05:07:35.280Z,8.26
2017-05-31T05:10:03.643Z,9.08
2017-05-31T05:12:32.244Z,7.72
2017-05-31T05:15:00.584Z,8.78
2017-05-31T05:17:29.028Z,8.60
2017-05-31T05:19:57.436Z,8.94
2017-05-31T05:22:25.799Z,7.80
2017-05-31T05:24:54.247Z,8.00
2017-05-31T05:27:22.579Z,9.62
2017-05-31T05:29:50.896Z,7.34
2017-05-31T05:32:19.324Z,6.64
2017-05-31T05:34:47.620Z,9.66
2017-05-31T05:37:15.958Z,6.80
2017-05-31T05:39:44.249Z,6.88
2017-05-31T05:42:12.561Z,5.86
2017-05-31T05:44:41.036Z,5.16
2017-05-31T05:47:09.333Z,5.16
2017-05-31T05:49:36.847Z,5.92
2017-05-31T05:52:05.177Z,5.64
2017-05-31T05:54:33.621Z,5.44
2017-05-31T05:57:01.998Z,5.66
2017-05-31T05:59:30.412Z,5.78
2017-05-31T06:01:58.703Z,5.84
2017-05-31T06:04:27.023Z,6.30
2017-05-31T06:06:55.356Z,5.92
2017-05-31T06:09:23.649Z,6.58
2017-05-31T06:11:52.195Z,5.54
2017-05-31T06:14:20.780Z,4.92
2017-05-31T06:16:49.144Z,5.40
2017-05-31T06:19:17.468Z,6.08
2017-05-31T06:21:45.964Z,6.04
2017-05-31T06:24:14.247Z,5.48
2017-05-31T06:26:42.575Z,5.46
2017-05-31T06:29:11.003Z,4.98
2017-05-31T06:31:39.297Z,5.52
2017-05-31T06:34:07.775Z,4.88
2017-05-31T06:36:36.132Z,5.40
2017-05-31T06:39:04.420Z,5.28
2017-05-31T06:41:32.780Z,4.42
2017-05-31T06:44:01.339Z,4.68
2017-05-31T06:46:28.929Z,4.10
2017-05-31T06:48:57.448Z,4.30
2017-05-31T06:51:26.048Z,3.38
2017-05-31T06:53:54.780Z,4.46
2017-05-31T06:56:23.337Z,3.52
2017-05-31T06:58:51.721Z,4.54
2017-05-31T07:01:20.034Z,4.12
2017-05-31T07:03:48.470Z,3.54
2017-05-31T07:06:16.838Z,3.86
2017-05-31T07:08:45.265Z,4.04
2017-05-31T07:11:15.477Z,3.46
2017-05-31T07:13:43.921Z,3.26
2017-05-31T07:16:13.616Z,4.18
2017-05-31T07:18:42.722Z,4.20
2017-05-31T07:21:12.591Z,3.78
2017-05-31T07:23:40.969Z,3.98
2017-05-31T07:26:09.316Z,4.14
2017-05-31T07:28:37.660Z,5.00
2017-05-31T07:31:06.056Z,4.64
2017-05-31T07:33:34.352Z,4.08
2017-05-31T07:36:02.761Z,3.96
2017-05-31T07:38:31.132Z,4.94
2017-05-31T07:40:59.415Z,4.34
2017-05-31T07:43:27.765Z,3.70
2017-05-31T07:45:56.087Z,4.68
2017-05-31T07:48:24.428Z,4.94
2017-05-31T07:50:52.764Z,4.20
2017-05-31T07:53:21.048Z,4.68
2017-05-31T07:55:49.344Z,5.22
2017-05-31T07:58:17.865Z,6.08
2017-05-31T08:00:46.304Z,4.84
2017-05-31T08:03:14.607Z,4.98
2017-05-31T08:05:43.027Z,6.64
2017-05-31T08:08:11.332Z,6.68
2017-05-31T08:10:39.937Z,7.00
2017-05-31T08:13:07.498Z,6.48
2017-05-31T08:15:35.965Z,8.72
2017-05-31T08:18:04.265Z,8.20
2017-05-31T08:20:32.629Z,7.52
2017-05-31T08:23:00.928Z,7.88
2017-05-31T08:25:29.244Z,7.28
2017-05-31T08:27:57.738Z,7.76
2017-05-31T08:30:26.025Z,7.38
2017-05-31T08:32:54.356Z,7.06
2017-05-31T08:35:22.693Z,7.12
2017-05-31T08:37:50.977Z,7.10
2017-05-31T08:40:19.265Z,7.08
2017-05-31T08:42:47.764Z,7.04
2017-05-31T08:45:16.059Z,6.94
2017-05-31T08:47:44.350Z,7.88
2017-05-31T08:50:12.679Z,7.82
2017-05-31T08:52:40.971Z,6.90
2017-05-31T08:55:09.552Z,7.10
2017-05-31T08:57:38.501Z,7.30
2017-05-31T09:00:09.205Z,7.32
2017-05-31T09:02:37.696Z,6.88
2017-05-31T09:05:05.976Z,6.86
2017-05-31T09:07:34.256Z,7.06
2017-05-31T09:10:02.596Z,7.38
2017-05-31T09:12:30.882Z,6.26
2017-05-31T09:14:59.277Z,7.02
2017-05-31T09:17:27.641Z,7.28
2017-05-31T09:19:56.190Z,8.44
2017-05-31T09:22:24.597Z,7.94
2017-05-31T09:24:52.160Z,8.54
2017-05-31T09:27:20.453Z,8.68
2017-05-31T09:29:48.733Z,8.46
2017-05-31T09:32:17.172Z,8.10
2017-05-31T09:34:45.455Z,8.18
2017-05-31T09:37:13.770Z,7.60
2017-05-31T09:39:42.110Z,7.30
2017-05-31T09:42:10.646Z,7.40
2017-05-31T09:44:39.274Z,6.98
2017-05-31T09:47:09.849Z,6.48
2017-05-31T09:49:41.332Z,6.16
2017-05-31T09:52:14.891Z,7.70
2017-05-31T09:54:45.285Z,7.22
2017-05-31T09:57:19.159Z,7.08
2017-05-31T09:59:49.562Z,6.62
2017-05-31T10:02:21.067Z,7.26
2017-05-31T10:04:51.597Z,7.20
2017-05-31T10:07:22.436Z,7.16
2017-05-31T10:09:53.283Z,7.80
2017-05-31T10:12:22.948Z,7.40
2017-05-31T10:14:56.183Z,7.32
2017-05-31T10:17:26.172Z,8.32
2017-05-31T10:19:55.992Z,7.82
2017-05-31T10:22:24.706Z,7.44
2017-05-31T10:24:53.013Z,6.46
2017-05-31T10:27:21.357Z,6.90
2017-05-31T10:29:49.640Z,7.02
2017-05-31T10:32:21.534Z,8.02
2017-05-31T10:34:51.409Z,6.50
2017-05-31T10:37:21.086Z,6.64
2017-05-31T10:39:50.308Z,6.64
2017-05-31T10:42:18.640Z,6.80
2017-05-31T10:44:47.559Z,5.98
2017-05-31T10:47:16.693Z,6.30
2017-05-31T10:49:45.120Z,7.52
2017-05-31T10:52:13.538Z,6.36
2017-05-31T10:54:41.963Z,6.76
2017-05-31T10:57:10.302Z,6.80
2017-05-31T10:59:38.138Z,6.92
2017-05-31T11:02:06.652Z,6.58
2017-05-31T11:04:35.338Z,7.06
2017-05-31T11:07:03.888Z,7.56
2017-05-31T11:09:37.166Z,7.42
2017-05-31T11:12:13.289Z,7.94
2017-05-31T11:17:21.321Z,7.00
2017-05-31T11:19:49.889Z,6.48
2017-05-31T11:22:18.407Z,6.22
2017-05-31T11:24:46.769Z,6.46
2017-05-31T11:27:17.204Z,6.30
2017-05-31T11:29:45.558Z,6.04
2017-05-31T11:32:13.883Z,5.64
2017-05-31T11:34:42.338Z,4.96
2017-05-31T11:37:09.948Z,5.92
2017-05-31T11:39:38.244Z,5.28
2017-05-31T11:42:06.588Z,5.62
2017-05-31T11:44:34.912Z,6.48
2017-05-31T11:47:03.235Z,7.02
2017-05-31T11:49:31.645Z,6.20
2017-05-31T11:51:59.985Z,6.72
2017-05-31T11:54:28.324Z,6.68
2017-05-31T11:56:56.714Z,6.78
2017-05-31T11:59:25.049Z,6.50
2017-05-31T12:01:53.366Z,6.04
2017-05-31T12:04:21.779Z,7.08
2017-05-31T12:06:50.127Z,6.50
2017-05-31T12:09:18.503Z,6.56
2017-05-31T12:11:46.906Z,5.98
2017-05-31T12:14:15.239Z,6.58
2017-05-31T12:16:43.600Z,7.24
2017-05-31T12:19:12.073Z,6.62
2017-05-31T12:21:41.534Z,6.56
2017-05-31T12:24:15.737Z,6.98
2017-05-31T12:26:45.786Z,6.78
2017-05-31T12:29:15.112Z,6.52
2017-05-31T12:31:43.709Z,7.16
2017-05-31T12:34:14.471Z,6.74
2017-05-31T12:36:44.166Z,6.92
2017-05-31T12:39:13.085Z,7.06
2017-05-31T12:41:41.586Z,5.90
2017-05-31T12:44:11.853Z,6.56
2017-05-31T12:46:41.397Z,5.64
2017-05-31T12:49:09.853Z,6.18
2017-05-31T12:54:13.928Z,5.38
2017-05-31T12:56:42.267Z,5.78
2017-05-31T12:59:10.548Z,6.02
2017-05-31T13:01:38.896Z,5.72
2017-05-31T13:04:07.297Z,6.34
2017-05-31T13:06:35.581Z,6.10
2017-05-31T13:09:03.867Z,6.80
2017-05-31T13:11:32.297Z,5.76
2017-05-31T13:14:00.588Z,6.68
2017-05-31T13:16:28.876Z,6.24
2017-05-31T13:18:57.232Z,5.34
2017-05-31T13:21:25.772Z,5.76
2017-05-31T13:23:54.067Z,5.90
2017-05-31T13:26:22.432Z,6.08
2017-05-31T13:28:50.733Z,5.90
2017-05-31T13:31:19.022Z,6.40
2017-05-31T13:33:47.359Z,5.92
2017-05-31T13:36:16.488Z,6.22
2017-05-31T13:38:44.808Z,6.28
2017-05-31T13:41:13.143Z,5.92
2017-05-31T13:43:41.632Z,6.34
2017-05-31T13:46:09.922Z,7.24
2017-05-31T13:48:38.635Z,5.80
2017-05-31T13:51:06.993Z,5.48
2017-05-31T13:53:35.356Z,5.48
2017-05-31T13:56:03.698Z,6.32
2017-05-31T13:58:31.215Z,7.18
2017-05-31T14:00:59.732Z,6.82
2017-05-31T14:03:28.301Z,6.76
2017-05-31T14:05:56.801Z,7.62
2017-05-31T14:08:25.227Z,7.02
2017-05-31T14:10:53.569Z,6.62
2017-05-31T14:13:21.864Z,5.88
2017-05-31T14:15:50.276Z,6.44
2017-05-31T14:18:18.714Z,6.94
2017-05-31T14:20:47.003Z,6.80
2017-05-31T14:23:15.440Z,6.34
2017-05-31T14:25:43.869Z,7.08
2017-05-31T14:28:12.172Z,8.68
2017-05-31T14:30:40.508Z,8.50
2017-05-31T14:33:08.911Z,7.62
2017-05-31T14:35:37.204Z,8.88
2017-05-31T14:38:04.874Z,7.82
2017-05-31T14:40:33.165Z,7.82
2017-05-31T14:43:01.461Z,7.68
2017-05-31T14:45:29.816Z,7.40
2017-05-31T14:47:58.132Z,6.48
2017-05-31T14:50:26.425Z,8.82
2017-05-31T14:52:54.768Z,7.36
2017-05-31T14:55:23.048Z,6.82
2017-05-31T14:57:51.336Z,6.90
2017-05-31T15:00:19.746Z,7.38
2017-05-31T15:02:48.039Z,7.50
2017-05-31T15:05:15.561Z,6.50
2017-05-31T15:07:43.892Z,7.40
2017-05-31T15:10:12.236Z,6.30
2017-05-31T15:12:40.527Z,6.62
2017-05-31T15:15:08.996Z,6.38
2017-05-31T15:17:37.288Z,7.80
2017-05-31T15:20:05.587Z,7.32
2017-05-31T15:22:33.983Z,7.16
2017-05-31T15:25:02.267Z,7.22
2017-05-31T15:27:30.555Z,7.12
2017-05-31T15:29:58.936Z,7.20
2017-05-31T15:32:27.245Z,6.44
2017-05-31T15:34:55.568Z,6.38
2017-05-31T15:37:23.896Z,6.84
2017-05-31T15:39:51.592Z,6.06
2017-05-31T15:42:19.877Z,6.60
2017-05-31T15:44:48.184Z,6.48
2017-05-31T15:47:16.525Z,6.94
2017-05-31T15:49:44.049Z,7.00
2017-05-31T15:52:12.424Z,5.80
2017-05-31T15:54:40.753Z,8.48
2017-05-31T15:57:09.033Z,6.00
2017-05-31T15:59:37.366Z,7.14
2017-05-31T16:02:05.846Z,6.48
2017-05-31T16:04:34.130Z,6.26
2017-05-31T16:07:02.456Z,5.90
2017-05-31T16:09:30.848Z,6.48
2017-05-31T16:11:59.140Z,6.16
2017-05-31T16:14:27.479Z,6.40
2017-05-31T16:16:55.756Z,6.30
2017-05-31T16:19:24.044Z,7.70
2017-05-31T16:21:52.361Z,6.18
2017-05-31T16:24:19.880Z,6.70
2017-05-31T16:26:48.199Z,6.28
2017-05-31T16:29:16.483Z,7.36
2017-05-31T16:31:44.817Z,6.54
2017-05-31T16:34:13.128Z,5.90
2017-05-31T16:36:41.416Z,5.86
2017-05-31T16:39:09.736Z,6.12
2017-05-31T16:41:38.031Z,6.08
2017-05-31T16:44:06.637Z,5.72
2017-05-31T16:46:36.726Z,7.02
2017-05-31T16:49:05.316Z,5.50
2017-05-31T16:51:33.608Z,7.30
2017-05-31T16:54:01.946Z,6.38
2017-05-31T16:56:30.241Z,7.70
2017-05-31T16:59:13.071Z,6.66
2017-05-31T17:01:41.526Z,7.38
2017-05-31T17:04:09.856Z,7.44
2017-05-31T17:06:38.140Z,7.20
2017-05-31T17:09:06.424Z,6.08
2017-05-31T17:11:34.748Z,6.54
2017-05-31T17:14:03.040Z,6.16
2017-05-31T17:16:31.340Z,7.34
2017-05-31T17:18:58.904Z,6.30
2017-05-31T17:21:27.197Z,6.04
2017-05-31T17:23:55.493Z,6.16
2017-05-31T17:26:23.852Z,5.50
2017-05-31T17:28:52.137Z,5.98
2017-05-31T17:31:20.451Z,6.00
2017-05-31T17:33:49.092Z,6.82
2017-05-31T17:36:17.381Z,6.62
2017-05-31T17:38:45.667Z,7.26
2017-05-31T17:41:14.006Z,6.82
2017-05-31T17:43:42.763Z,6.28
2017-05-31T17:46:10.285Z,5.74
2017-05-31T17:48:38.616Z,5.52
2017-05-31T17:51:06.910Z,6.82
2017-05-31T17:53:35.201Z,5.60
2017-05-31T17:56:03.555Z,5.44
2017-05-31T17:58:31.850Z,5.38
2017-05-31T18:01:00.135Z,6.26
2017-05-31T18:03:28.467Z,6.08
2017-05-31T18:05:56.831Z,5.80
2017-05-31T18:08:25.136Z,5.98
2017-05-31T18:10:53.465Z,6.24
2017-05-31T18:13:21.753Z,6.64
2017-05-31T18:15:50.034Z,6.80
2017-05-31T18:18:18.374Z,6.82
2017-05-31T18:20:46.652Z,6.26
2017-05-31T18:23:14.935Z,6.52
2017-05-31T18:25:43.305Z,5.82
2017-05-31T18:28:11.588Z,6.44
2017-05-31T18:30:39.877Z,6.68
2017-05-31T18:33:08.222Z,5.86
2017-05-31T18:35:36.502Z,6.88
2017-05-31T18:38:04.795Z,5.64
2017-05-31T18:40:33.149Z,5.86
2017-05-31T18:43:01.520Z,6.14
2017-05-31T18:45:29.816Z,6.26
2017-05-31T18:47:58.157Z,6.88
2017-05-31T18:50:26.452Z,5.42
2017-05-31T18:52:54.744Z,5.00
2017-05-31T18:55:23.136Z,6.30
2017-05-31T18:57:51.416Z,5.92
2017-05-31T19:00:19.929Z,6.10
2017-05-31T19:02:48.272Z,7.34
2017-05-31T19:05:16.566Z,7.04
2017-05-31T19:07:44.928Z,7.00
2017-05-31T19:10:13.734Z,7.12
2017-05-31T19:12:42.032Z,7.62
2017-05-31T19:15:10.323Z,6.60
2017-05-31T19:17:38.662Z,6.28
2017-05-31T19:20:06.948Z,6.82
2017-05-31T19:22:35.245Z,7.00
2017-05-31T19:25:03.588Z,6.30
2017-05-31T19:27:31.879Z,7.10
2017-05-31T19:30:00.169Z,7.18
2017-05-31T19:32:28.505Z,6.38
2017-05-31T19:34:56.795Z,6.56
2017-05-31T19:37:25.080Z,6.46
2017-05-31T19:39:53.412Z,6.92
2017-05-31T19:42:21.714Z,6.80
2017-05-31T19:44:50.011Z,7.82
2017-05-31T19:47:18.340Z,7.46
2017-05-31T19:49:46.630Z,6.92
2017-05-31T19:52:14.920Z,6.92
2017-05-31T19:54:43.259Z,6.92
2017-05-31T19:57:11.548Z,7.48
2017-05-31T19:59:39.832Z,7.46
2017-05-31T20:02:08.188Z,7.66
2017-05-31T20:04:36.486Z,6.60
2017-05-31T20:07:04.771Z,7.34
2017-05-31T20:09:33.186Z,7.66
2017-05-31T20:12:01.487Z,6.60
2017-05-31T20:14:29.781Z,6.46
2017-05-31T20:16:58.129Z,7.28
2017-05-31T20:19:26.428Z,7.50
2017-05-31T20:21:54.724Z,7.44
2017-05-31T20:24:23.076Z,7.50
2017-05-31T20:26:51.359Z,6.94
2017-05-31T20:29:19.657Z,7.12
2017-05-31T20:31:47.999Z,7.36
2017-05-31T20:34:16.292Z,8.02
2017-05-31T20:36:44.815Z,7.52
2017-05-31T20:39:12.380Z,8.16
2017-05-31T20:41:40.669Z,6.90
2017-05-31T20:44:08.973Z,9.18
2017-05-31T20:46:37.297Z,8.24
2017-05-31T20:49:05.581Z,7.54
2017-05-31T20:51:33.863Z,8.40
2017-05-31T20:54:02.188Z,8.04
2017-05-31T20:56:30.477Z,8.64
2017-05-31T20:58:58.763Z,6.82
2017-05-31T21:01:27.116Z,7.30
2017-05-31T21:03:55.403Z,7.72
2017-05-31T21:06:23.688Z,7.10
2017-05-31T21:08:52.116Z,7.82
2017-05-31T21:11:20.400Z,6.46
2017-05-31T21:13:47.944Z,7.74
2017-05-31T21:16:15.496Z,6.82
2017-05-31T21:18:43.780Z,6.72
2017-05-31T21:21:12.129Z,7.34
2017-05-31T21:23:42.936Z,7.26
2017-05-31T21:26:11.265Z,6.50
2017-05-31T21:28:40.387Z,7.52
2017-05-31T21:31:08.723Z,6.40
2017-05-31T21:33:37.067Z,6.58
2017-05-31T21:36:05.364Z,6.72
2017-05-31T21:38:33.661Z,6.76
2017-05-31T21:41:01.992Z,5.82
2017-05-31T21:43:30.280Z,6.14
2017-05-31T21:45:58.566Z,7.30
2017-05-31T21:48:26.892Z,7.46
2017-05-31T21:50:55.177Z,6.16
2017-05-31T21:53:23.461Z,6.72
2017-05-31T21:55:51.792Z,6.52
2017-05-31T21:58:20.080Z,6.86
2017-05-31T22:00:48.376Z,6.38
2017-05-31T22:03:16.714Z,6.78
2017-05-31T22:05:44.997Z,6.78
2017-05-31T22:08:13.296Z,7.88
2017-05-31T22:10:41.629Z,7.10
2017-05-31T22:13:09.912Z,6.52
2017-05-31T22:15:38.201Z,6.94
2017-05-31T22:18:06.536Z,6.28
2017-05-31T22:20:34.833Z,6.76
2017-05-31T22:23:03.120Z,5.92
2017-05-31T22:25:31.458Z,5.82
2017-05-31T22:27:59.745Z,5.92
2017-05-31T22:30:28.047Z,6.56
2017-05-31T22:32:56.394Z,5.94
2017-05-31T22:35:24.686Z,6.52
2017-05-31T22:37:52.974Z,6.62
2017-05-31T22:40:21.300Z,6.04
2017-05-31T22:42:49.594Z,6.54
2017-05-31T22:45:17.885Z,6.30
2017-05-31T22:47:46.233Z,6.76
2017-05-31T22:50:14.530Z,6.12
2017-05-31T22:52:42.821Z,5.54
2017-05-31T22:55:11.152Z,5.94
2017-05-31T22:57:39.437Z,5.74
2017-05-31T23:00:07.724Z,5.98
2017-05-31T23:02:36.076Z,6.08
2017-05-31T23:05:04.360Z,6.30
2017-05-31T23:07:32.654Z,6.24
2017-05-31T23:10:00.980Z,5.86
2017-05-31T23:12:29.271Z,5.86
2017-05-31T23:14:56.796Z,6.50
2017-05-31T23:17:25.139Z,5.50
2017-05-31T23:19:53.428Z,6.20
2017-05-31T23:22:21.721Z,6.22
2017-05-31T23:24:50.099Z,6.34
2017-05-31T23:27:18.388Z,7.62
2017-05-31T23:29:46.683Z,5.66
2017-05-31T23:32:15.022Z,5.66
2017-05-31T23:34:43.307Z,5.74
2017-05-31T23:37:11.607Z,6.32
2017-05-31T23:39:39.947Z,5.52
2017-05-31T23:42:08.236Z,6.78
2017-05-31T23:44:36.536Z,7.04
2017-05-31T23:47:04.869Z,7.38
2017-05-31T23:49:33.157Z,7.88
2017-05-31T23:52:01.444Z,6.04
2017-05-31T23:54:29.760Z,6.16
2017-05-31T23:56:58.084Z,7.10
2017-05-31T23:59:26.405Z,6.34
